Time;durP1;ratioP1;P1;durP2;ratioP2;P2;SDS_P1;SDS_P2;PMS_P1;PMS_P2;Temp;Humidity;BMP_temperature;BMP_pressure;BME280_temperature;BME280_humidity;BME280_pressure;Samples;Min_cycle;Max_cycle;Signal;HPM_P1;HPM_P2
2023/04/17 00:00:45;;;;;;;31.17;19.13;;;21.00;52.50;;;;;;5011538;28;20442;-77
2023/04/17 00:03:13;;;;;;;24.50;16.67;;;21.00;52.40;;;;;;5011339;28;20436;-77
2023/04/17 00:05:42;;;;;;;23.47;17.23;;;21.00;52.40;;;;;;5011064;28;20502;-77
2023/04/17 00:08:10;;;;;;;29.43;18.63;;;20.90;52.50;;;;;;5001105;28;20438;-77
2023/04/17 00:10:37;;;;;;;30.20;21.40;;;21.00;52.50;;;;;;5005631;28;20452;-77
2023/04/17 00:13:07;;;;;;;25.67;18.13;;;20.90;52.50;;;;;;5007248;28;20457;-76
2023/04/17 00:15:34;;;;;;;27.07;19.17;;;20.90;52.50;;;;;;5003725;28;20441;-77
2023/04/17 00:18:02;;;;;;;27.23;19.70;;;20.90;52.50;;;;;;5008199;28;20442;-75
2023/04/17 00:20:30;;;;;;;34.60;22.40;;;20.90;52.50;;;;;;5007792;28;20475;-78
2023/04/17 00:22:58;;;;;;;36.77;20.00;;;20.90;52.60;;;;;;4992590;28;20433;-77
2023/04/17 00:25:26;;;;;;;29.13;19.57;;;20.90;52.60;;;;;;5000405;28;20459;-77
2023/04/17 00:27:53;;;;;;;30.67;19.70;;;20.80;52.60;;;;;;5011606;28;20467;-78
2023/04/17 00:30:23;;;;;;;26.93;18.20;;;20.80;52.60;;;;;;5011779;28;20862;-76
2023/04/17 00:32:51;;;;;;;26.67;19.20;;;20.80;52.60;;;;;;5008705;28;20468;-77
2023/04/17 00:35:19;;;;;;;28.80;18.33;;;20.80;52.70;;;;;;5011199;28;20560;-77
2023/04/17 00:37:48;;;;;;;24.70;17.67;;;20.80;52.70;;;;;;5013303;28;20444;-78
2023/04/17 00:40:16;;;;;;;25.27;18.20;;;20.80;52.80;;;;;;5013550;28;20476;-78
2023/04/17 00:42:51;;;;;;;25.13;18.50;;;20.80;52.80;;;;;;5015199;28;20454;-76
2023/04/17 00:45:20;;;;;;;24.10;17.67;;;20.70;52.70;;;;;;5015379;28;20519;-77
2023/04/17 00:47:49;;;;;;;26.73;17.40;;;20.70;52.90;;;;;;5012404;28;20452;-78
2023/04/17 00:50:17;;;;;;;28.50;18.53;;;20.70;52.90;;;;;;5014878;28;20468;-78
2023/04/17 00:52:45;;;;;;;23.10;17.67;;;20.70;52.90;;;;;;5013857;28;20535;-78
2023/04/17 00:55:13;;;;;;;25.90;17.53;;;20.70;52.90;;;;;;5014945;28;20444;-77
2023/04/17 00:57:42;;;;;;;27.33;17.03;;;20.60;52.80;;;;;;5015087;28;20448;-78
2023/04/17 01:00:11;;;;;;;22.40;17.07;;;20.60;53.00;;;;;;5014302;28;20468;-77
2023/04/17 01:02:39;;;;;;;24.67;17.17;;;20.60;52.90;;;;;;5014456;28;20479;-77
2023/04/17 01:05:09;;;;;;;21.73;17.50;;;20.60;53.00;;;;;;5013274;28;20444;-77
2023/04/17 01:07:37;;;;;;;22.33;16.40;;;20.60;53.00;;;;;;5014321;28;20527;-77
2023/04/17 01:10:06;;;;;;;26.40;18.30;;;20.50;52.80;;;;;;5012351;28;20468;-78
2023/04/17 01:12:34;;;;;;;23.60;17.07;;;20.60;53.10;;;;;;5014621;28;20444;-76
2023/04/17 01:15:01;;;;;;;21.27;16.53;;;20.60;53.10;;;;;;5007182;28;20433;-77
2023/04/17 01:17:30;;;;;;;25.07;17.10;;;20.60;53.00;;;;;;5015101;28;20440;-78
2023/04/17 01:19:58;;;;;;;20.00;15.30;;;20.60;53.00;;;;;;5006198;28;20491;-78
2023/04/17 01:22:27;;;;;;;24.60;15.93;;;20.60;53.10;;;;;;5010163;28;20449;-78
2023/04/17 01:24:56;;;;;;;25.13;16.17;;;20.60;53.10;;;;;;5013129;28;20472;-77
2023/04/17 01:27:24;;;;;;;20.67;15.17;;;20.50;53.00;;;;;;5015204;28;20436;-77
2023/04/17 01:29:52;;;;;;;19.87;14.77;;;20.60;53.40;;;;;;5013680;28;20468;-78
2023/04/17 01:32:20;;;;;;;23.50;15.73;;;20.50;53.00;;;;;;5014909;28;20451;-77
2023/04/17 01:34:48;;;;;;;18.33;14.60;;;20.50;53.10;;;;;;5013590;28;20423;-77
2023/04/17 01:37:16;;;;;;;20.03;15.70;;;20.50;53.10;;;;;;5013706;28;20467;-78
2023/04/17 01:39:44;;;;;;;20.37;15.30;;;20.50;53.00;;;;;;5010270;28;20481;-78
2023/04/17 01:42:14;;;;;;;23.03;14.80;;;20.50;53.00;;;;;;5012450;28;20499;-77
2023/04/17 01:44:42;;;;;;;19.87;14.83;;;20.50;53.10;;;;;;5014573;28;20449;-77
2023/04/17 01:47:10;;;;;;;18.10;14.43;;;20.50;53.10;;;;;;5008796;28;20452;-77
2023/04/17 01:49:38;;;;;;;17.50;14.00;;;20.50;53.10;;;;;;5013360;28;20464;-77
2023/04/17 01:52:06;;;;;;;17.53;13.93;;;20.50;52.80;;;;;;5010667;28;20444;-77
2023/04/17 01:54:34;;;;;;;17.93;13.87;;;20.50;53.10;;;;;;5014285;28;20544;-77
2023/04/17 01:57:02;;;;;;;17.20;13.40;;;20.50;53.10;;;;;;5009166;28;20455;-77
2023/04/17 01:59:31;;;;;;;17.33;13.80;;;20.50;53.10;;;;;;5013966;28;20464;-76
2023/04/17 02:01:59;;;;;;;20.30;14.67;;;20.50;53.20;;;;;;5014069;28;20473;-77
2023/04/17 02:04:27;;;;;;;19.17;13.13;;;20.40;53.10;;;;;;5009062;28;20441;-76
2023/04/17 02:06:55;;;;;;;18.87;13.80;;;20.40;53.10;;;;;;5012918;28;20456;-77
2023/04/17 02:09:23;;;;;;;16.40;12.83;;;20.40;53.20;;;;;;5014639;28;20460;-77
2023/04/17 02:11:51;;;;;;;16.90;13.30;;;20.40;53.10;;;;;;5012186;28;20436;-77
2023/04/17 02:14:18;;;;;;;16.63;13.27;;;20.40;53.10;;;;;;5010800;28;20464;-76
2023/04/17 02:16:48;;;;;;;15.40;13.10;;;20.40;53.10;;;;;;5013276;28;20865;-76
2023/04/17 02:19:16;;;;;;;16.53;13.00;;;20.40;53.20;;;;;;5006693;28;20476;-76
2023/04/17 02:21:44;;;;;;;18.27;12.73;;;20.40;53.20;;;;;;5013636;28;20468;-76
2023/04/17 02:24:12;;;;;;;18.23;12.83;;;20.30;53.20;;;;;;5013016;28;20448;-76
2023/04/17 02:26:40;;;;;;;14.93;12.20;;;20.30;53.20;;;;;;5005168;28;20461;-78
2023/04/17 02:29:08;;;;;;;16.73;13.20;;;20.30;53.20;;;;;;5023176;28;20520;-78
2023/04/17 02:31:36;;;;;;;14.93;12.03;;;20.30;53.40;;;;;;5012795;28;20445;-77
2023/04/17 02:34:05;;;;;;;15.90;12.30;;;20.30;53.20;;;;;;5005295;28;20508;-78
2023/04/17 02:36:32;;;;;;;13.77;11.20;;;20.30;53.30;;;;;;5012954;28;20501;-77
2023/04/17 02:39:00;;;;;;;15.70;12.40;;;20.30;53.40;;;;;;5012819;28;20440;-77
2023/04/17 02:41:28;;;;;;;15.70;11.60;;;20.30;53.30;;;;;;5013289;28;20544;-77
2023/04/17 02:43:57;;;;;;;15.60;11.43;;;20.30;53.30;;;;;;5013612;28;20415;-77
2023/04/17 02:46:25;;;;;;;12.63;10.53;;;20.30;53.20;;;;;;5012178;28;20451;-78
2023/04/17 02:48:53;;;;;;;13.77;11.53;;;20.30;53.30;;;;;;5009859;28;20453;-78
2023/04/17 02:51:22;;;;;;;29.53;12.10;;;20.30;53.30;;;;;;5010432;28;20463;-77
2023/04/17 02:53:50;;;;;;;15.17;12.00;;;20.20;53.30;;;;;;5006755;28;20456;-77
2023/04/17 02:56:17;;;;;;;12.90;10.60;;;20.20;53.40;;;;;;5012001;28;20436;-79
2023/04/17 02:58:46;;;;;;;14.77;11.13;;;20.20;53.40;;;;;;5006406;28;20445;-79
2023/04/17 03:01:14;;;;;;;16.03;10.73;;;20.20;53.40;;;;;;5005793;28;20479;-78
2023/04/17 03:03:43;;;;;;;17.20;11.87;;;20.20;53.30;;;;;;5011358;28;20452;-76
2023/04/17 03:06:11;;;;;;;13.50;11.07;;;20.20;53.30;;;;;;5010261;28;20437;-78
2023/04/17 03:08:42;;;;;;;13.30;10.97;;;20.20;53.40;;;;;;5011019;28;20930;-76
2023/04/17 03:11:10;;;;;;;13.70;10.93;;;20.20;53.40;;;;;;5010300;28;20469;-78
2023/04/17 03:13:38;;;;;;;13.30;10.60;;;20.20;53.40;;;;;;5010559;28;20455;-77
2023/04/17 03:16:07;;;;;;;13.47;10.83;;;20.10;53.40;;;;;;5007678;28;20459;-78
2023/04/17 03:18:35;;;;;;;16.40;10.73;;;20.20;53.50;;;;;;5010511;28;20460;-77
2023/04/17 03:21:03;;;;;;;12.07;9.97;;;20.10;53.40;;;;;;5010212;28;20506;-79
2023/04/17 03:23:31;;;;;;;10.67;9.37;;;20.10;53.40;;;;;;5010986;28;20455;-79
2023/04/17 03:26:01;;;;;;;13.13;10.30;;;20.10;53.30;;;;;;5011214;28;20449;-78
2023/04/17 03:28:29;;;;;;;12.33;10.13;;;20.10;53.50;;;;;;5011760;28;20437;-78
2023/04/17 03:30:58;;;;;;;12.50;9.97;;;20.10;53.60;;;;;;5003072;28;20477;-78
2023/04/17 03:33:26;;;;;;;10.83;9.37;;;20.10;53.60;;;;;;5010515;28;20518;-78
2023/04/17 03:35:54;;;;;;;12.10;9.20;;;20.10;53.50;;;;;;5010899;28;20458;-77
2023/04/17 03:38:22;;;;;;;11.60;9.80;;;20.10;53.60;;;;;;5011281;28;20444;-78
2023/04/17 03:40:50;;;;;;;11.70;9.70;;;20.10;53.60;;;;;;5011499;28;20555;-79
2023/04/17 03:43:19;;;;;;;11.73;9.50;;;20.00;53.50;;;;;;5011334;28;20479;-78
2023/04/17 03:45:48;;;;;;;13.73;9.97;;;20.00;53.50;;;;;;5008996;28;20460;-78
2023/04/17 03:48:16;;;;;;;12.17;9.50;;;20.00;53.50;;;;;;5008237;28;20468;-78
2023/04/17 03:50:44;;;;;;;12.03;10.20;;;20.00;53.50;;;;;;5011293;28;20471;-78
2023/04/17 03:53:12;;;;;;;15.83;10.33;;;20.00;53.40;;;;;;4995736;28;20495;-78
2023/04/17 03:55:40;;;;;;;10.70;9.50;;;20.00;53.50;;;;;;5011265;28;20527;-78
2023/04/17 03:58:09;;;;;;;12.33;9.80;;;20.00;53.60;;;;;;5011625;28;20452;-78
2023/04/17 04:00:38;;;;;;;14.40;9.90;;;20.00;53.60;;;;;;5009617;28;20491;-78
2023/04/17 04:03:06;;;;;;;11.90;9.97;;;20.00;53.50;;;;;;5010987;28;20476;-78
2023/04/17 04:05:34;;;;;;;10.80;9.43;;;20.00;53.60;;;;;;5010935;28;20448;-77
2023/04/17 04:08:02;;;;;;;10.17;9.10;;;20.00;53.60;;;;;;5010517;28;20454;-78
2023/04/17 04:10:31;;;;;;;11.93;9.40;;;19.90;53.40;;;;;;5012117;28;20491;-78
2023/04/17 04:12:59;;;;;;;11.43;9.30;;;19.90;53.60;;;;;;5015374;28;20498;-78
2023/04/17 04:15:26;;;;;;;11.10;9.60;;;19.90;53.50;;;;;;5014820;28;20444;-77
2023/04/17 04:17:55;;;;;;;11.30;9.27;;;19.90;53.60;;;;;;5014207;28;20460;-78
2023/04/17 04:20:23;;;;;;;14.80;9.60;;;19.90;53.50;;;;;;5014987;28;21012;-78
2023/04/17 04:22:51;;;;;;;11.43;9.10;;;19.90;53.50;;;;;;5015407;28;20476;-78
2023/04/17 04:25:20;;;;;;;12.57;9.43;;;19.90;53.50;;;;;;5014741;28;20432;-76
2023/04/17 04:27:49;;;;;;;10.23;9.07;;;19.90;53.60;;;;;;5014831;28;20446;-78
2023/04/17 04:30:17;;;;;;;10.00;8.73;;;19.90;53.60;;;;;;5014678;28;20468;-79
2023/04/17 04:32:45;;;;;;;9.37;8.47;;;19.90;53.60;;;;;;5013802;28;20949;-78
2023/04/17 04:35:14;;;;;;;13.93;9.50;;;19.90;53.70;;;;;;5008804;28;20475;-76
2023/04/17 04:37:45;;;;;;;10.43;8.60;;;19.90;54.20;;;;;;5014736;28;20436;-78
2023/04/17 04:40:13;;;;;;;12.50;8.83;;;19.90;53.60;;;;;;5008562;28;20452;-78
2023/04/17 04:42:41;;;;;;;11.30;9.40;;;19.90;53.50;;;;;;5014489;28;20476;-78
2023/04/17 04:45:10;;;;;;;9.87;8.33;;;19.90;53.50;;;;;;5014428;28;20455;-77
2023/04/17 04:47:38;;;;;;;11.93;7.83;;;19.80;53.40;;;;;;5012869;28;20444;-78
2023/04/17 04:50:07;;;;;;;9.50;8.27;;;19.80;53.50;;;;;;5012833;28;20526;-78
2023/04/17 04:52:36;;;;;;;11.83;9.17;;;19.80;53.70;;;;;;5009475;28;20432;-78
2023/04/17 04:55:05;;;;;;;9.53;8.33;;;19.90;53.50;;;;;;5014209;28;20443;-78
2023/04/17 04:57:33;;;;;;;12.37;9.40;;;19.80;53.60;;;;;;5012944;28;20466;-77
2023/04/17 05:00:01;;;;;;;9.47;8.40;;;19.80;53.60;;;;;;5014263;28;20551;-78
2023/04/17 05:02:28;;;;;;;9.37;8.10;;;19.80;53.40;;;;;;5013044;28;20480;-78
2023/04/17 05:04:56;;;;;;;11.10;8.60;;;19.80;53.60;;;;;;5014433;28;20451;-78
2023/04/17 05:07:24;;;;;;;13.63;9.23;;;19.80;53.50;;;;;;5006243;28;20472;-78
2023/04/17 05:09:54;;;;;;;9.17;8.27;;;19.80;53.50;;;;;;5005356;28;20469;-78
2023/04/17 05:12:22;;;;;;;10.50;8.60;;;19.80;53.60;;;;;;5014004;28;20455;-77
2023/04/17 05:14:51;;;;;;;9.83;8.77;;;19.80;53.60;;;;;;5014212;28;20444;-78
2023/04/17 05:17:20;;;;;;;10.47;8.73;;;19.80;53.60;;;;;;5013626;28;20458;-78
2023/04/17 05:19:48;;;;;;;10.30;8.37;;;19.80;53.70;;;;;;5012880;28;21062;-78
2023/04/17 05:22:15;;;;;;;8.80;7.90;;;19.90;53.60;;;;;;5004083;28;20459;-78
2023/04/17 05:24:43;;;;;;;8.73;7.83;;;19.80;53.50;;;;;;5005897;28;20531;-78
2023/04/17 05:27:13;;;;;;;8.90;8.00;;;19.80;53.60;;;;;;5014008;28;20445;-78
2023/04/17 05:29:41;;;;;;;9.10;8.20;;;19.80;53.50;;;;;;5013242;28;20476;-78
2023/04/17 05:32:09;;;;;;;8.73;7.83;;;19.80;53.50;;;;;;5011596;28;20448;-79
2023/04/17 05:34:37;;;;;;;11.40;7.97;;;19.80;53.60;;;;;;5008842;28;20540;-78
2023/04/17 05:37:05;;;;;;;9.43;8.43;;;19.90;53.60;;;;;;5018015;28;20440;-78
2023/04/17 05:39:33;;;;;;;9.07;8.17;;;19.90;53.60;;;;;;5017283;28;20519;-79
2023/04/17 05:42:01;;;;;;;9.23;8.33;;;19.90;53.40;;;;;;5014758;28;20460;-78
2023/04/17 05:44:31;;;;;;;8.90;7.80;;;19.90;53.40;;;;;;5013036;28;20559;-77
2023/04/17 05:46:59;;;;;;;8.90;8.00;;;19.90;53.40;;;;;;5014139;28;20494;-78
2023/04/17 05:49:27;;;;;;;10.37;8.37;;;19.90;53.40;;;;;;5010931;28;20472;-78
2023/04/17 05:51:55;;;;;;;9.00;7.67;;;19.90;53.30;;;;;;5014235;28;20448;-78
2023/04/17 05:54:23;;;;;;;10.60;8.60;;;19.90;53.60;;;;;;5013445;28;20444;-77
2023/04/17 05:56:51;;;;;;;8.80;7.70;;;20.00;53.40;;;;;;5012972;28;20456;-78
2023/04/17 05:59:19;;;;;;;9.20;8.20;;;20.00;53.30;;;;;;5011502;28;20570;-77
2023/04/17 06:01:49;;;;;;;8.40;7.60;;;20.00;53.40;;;;;;5012702;28;20452;-78
2023/04/17 06:04:18;;;;;;;9.10;8.20;;;20.00;53.20;;;;;;5003864;28;20468;-78
2023/04/17 06:06:46;;;;;;;10.90;8.20;;;20.00;53.40;;;;;;5013347;28;20452;-78
2023/04/17 06:09:14;;;;;;;8.73;7.93;;;20.00;53.20;;;;;;5002231;28;20483;-77
2023/04/17 06:11:42;;;;;;;11.00;8.00;;;20.00;53.30;;;;;;5013235;28;20455;-78
2023/04/17 06:14:11;;;;;;;8.47;7.60;;;20.10;53.30;;;;;;5013062;28;20516;-78
2023/04/17 06:16:39;;;;;;;8.77;7.73;;;20.10;53.30;;;;;;5005117;28;20459;-77
2023/04/17 06:19:09;;;;;;;7.73;7.03;;;20.20;53.30;;;;;;5012590;28;20445;-79
2023/04/17 06:21:37;;;;;;;8.30;7.27;;;20.20;53.20;;;;;;5006913;28;20457;-78
2023/04/17 06:24:06;;;;;;;8.10;7.40;;;20.20;53.20;;;;;;5010418;28;20472;-77
2023/04/17 06:26:34;;;;;;;7.97;7.17;;;20.20;53.00;;;;;;5012436;28;20525;-79
2023/04/17 06:29:03;;;;;;;9.70;7.47;;;20.30;53.10;;;;;;5012236;28;20467;-79
2023/04/17 06:31:31;;;;;;;8.30;7.50;;;20.30;53.10;;;;;;5010000;28;20452;-78
2023/04/17 06:33:59;;;;;;;8.20;7.40;;;20.30;52.80;;;;;;5010388;28;20441;-78
2023/04/17 06:36:29;;;;;;;9.10;8.20;;;20.40;53.00;;;;;;5009186;28;20452;-78
2023/04/17 06:38:57;;;;;;;8.17;7.43;;;20.40;53.00;;;;;;5012130;28;20444;-78
2023/04/17 06:41:25;;;;;;;8.10;7.30;;;20.40;52.80;;;;;;5012080;28;20452;-79
2023/04/17 06:43:53;;;;;;;12.97;8.13;;;20.50;52.90;;;;;;5012251;28;20476;-77
2023/04/17 06:46:21;;;;;;;8.97;8.10;;;20.50;53.00;;;;;;5003935;28;20458;-79
2023/04/17 06:48:51;;;;;;;7.80;7.10;;;20.50;52.60;;;;;;5009782;28;20444;-78
2023/04/17 06:51:20;;;;;;;7.93;7.20;;;20.50;52.90;;;;;;5011748;28;20440;-77
2023/04/17 06:53:50;;;;;;;7.47;6.80;;;20.60;52.90;;;;;;5010837;28;20486;-78
2023/04/17 06:56:18;;;;;;;7.63;6.93;;;20.60;53.00;;;;;;5011981;28;20517;-78
2023/04/17 06:58:46;;;;;;;8.40;7.50;;;20.70;52.90;;;;;;5011987;28;20455;-78
2023/04/17 07:01:15;;;;;;;7.93;7.23;;;20.80;52.70;;;;;;5005206;28;20477;-78
2023/04/17 07:03:43;;;;;;;8.07;7.27;;;20.80;52.70;;;;;;5011843;28;20464;-78
2023/04/17 07:06:11;;;;;;;8.10;7.30;;;20.80;52.50;;;;;;5003727;28;20531;-78
2023/04/17 07:08:39;;;;;;;7.73;7.03;;;20.90;52.50;;;;;;5002043;28;20480;-78
2023/04/17 07:11:09;;;;;;;7.53;6.83;;;20.90;52.40;;;;;;5009734;28;20464;-78
2023/04/17 07:13:36;;;;;;;7.67;6.87;;;21.00;52.40;;;;;;5010898;28;20448;-77
2023/04/17 07:16:06;;;;;;;9.30;7.43;;;21.00;52.30;;;;;;5002905;28;20457;-78
2023/04/17 07:18:33;;;;;;;7.33;6.63;;;21.00;52.40;;;;;;5011450;28;20518;-78
2023/04/17 07:21:01;;;;;;;7.53;6.83;;;21.00;52.30;;;;;;5011339;28;20495;-78
2023/04/17 07:23:29;;;;;;;7.37;6.67;;;21.10;52.40;;;;;;5011386;28;20475;-79
2023/04/17 07:25:58;;;;;;;7.50;6.80;;;21.10;52.40;;;;;;5011649;28;20436;-79
2023/04/17 07:28:27;;;;;;;7.70;7.00;;;21.20;52.40;;;;;;5010082;28;20459;-78
2023/04/17 07:30:56;;;;;;;7.60;6.90;;;21.20;52.30;;;;;;5010580;28;20480;-77
2023/04/17 07:33:24;;;;;;;9.70;7.70;;;21.30;52.30;;;;;;5011003;28;20440;-78
2023/04/17 07:35:53;;;;;;;7.60;6.90;;;21.30;52.30;;;;;;5011240;28;20448;-79
2023/04/17 07:38:20;;;;;;;7.30;6.60;;;21.30;52.30;;;;;;5007625;28;20455;-79
2023/04/17 07:40:48;;;;;;;7.07;6.47;;;21.40;52.30;;;;;;5001644;28;20468;-79
2023/04/17 07:43:17;;;;;;;7.20;6.50;;;21.50;52.40;;;;;;4999665;28;20445;-78
2023/04/17 07:45:47;;;;;;;7.93;7.23;;;21.50;52.10;;;;;;4997834;28;20423;-78
2023/04/17 07:48:17;;;;;;;7.20;6.60;;;21.60;52.10;;;;;;4991445;28;20520;-78
2023/04/17 07:50:45;;;;;;;7.60;6.80;;;21.60;52.00;;;;;;5005115;28;20464;-77
2023/04/17 07:53:13;;;;;;;8.43;7.40;;;21.70;52.00;;;;;;5003703;28;20448;-78
2023/04/17 07:55:41;;;;;;;7.60;6.90;;;21.80;52.10;;;;;;5007033;28;20452;-78
2023/04/17 07:58:10;;;;;;;7.17;6.40;;;21.80;52.00;;;;;;5005780;28;20452;-76
2023/04/17 08:00:38;;;;;;;7.30;6.60;;;21.90;52.00;;;;;;5002153;28;20504;-79
2023/04/17 08:03:07;;;;;;;6.93;6.33;;;21.90;52.10;;;;;;5010339;28;20436;-78
2023/04/17 08:05:35;;;;;;;7.53;6.83;;;22.00;52.00;;;;;;5005817;28;20468;-77
2023/04/17 08:08:04;;;;;;;7.10;6.50;;;22.10;52.00;;;;;;5011452;28;20443;-79
2023/04/17 08:10:32;;;;;;;8.23;7.43;;;22.20;51.90;;;;;;5001845;28;20471;-79
2023/04/17 08:13:00;;;;;;;7.70;6.93;;;22.20;51.80;;;;;;5010345;28;20440;-78
2023/04/17 08:15:39;;;;;;;7.57;6.97;;;22.30;51.80;;;;;;5007407;28;20453;-81
2023/04/17 08:18:09;;;;;;;8.53;7.73;;;22.30;51.80;;;;;;5006006;28;20448;-79
2023/04/17 08:20:37;;;;;;;7.63;6.97;;;22.40;51.80;;;;;;5012281;28;20476;-81
2023/04/17 08:23:06;;;;;;;7.13;6.53;;;22.50;51.70;;;;;;5012985;28;20595;-80
2023/04/17 08:25:34;;;;;;;6.77;6.27;;;22.50;51.90;;;;;;5012091;28;20516;-80
2023/04/17 08:28:02;;;;;;;8.47;7.10;;;22.60;51.80;;;;;;5013119;28;20456;-80
2023/04/17 08:30:30;;;;;;;6.93;6.33;;;22.70;52.40;;;;;;5010583;28;20476;-79
2023/04/17 08:32:58;;;;;;;8.63;7.30;;;22.70;51.90;;;;;;5011105;28;20561;-79
2023/04/17 08:35:28;;;;;;;6.97;6.37;;;22.80;51.60;;;;;;5004153;28;20446;-79
2023/04/17 08:37:58;;;;;;;7.30;6.60;;;22.80;51.60;;;;;;5009698;28;20452;-80
2023/04/17 08:40:26;;;;;;;7.73;7.03;;;22.90;51.70;;;;;;5008824;28;20458;-80
2023/04/17 08:42:54;;;;;;;8.50;7.07;;;23.00;51.60;;;;;;5010679;28;20410;-79
2023/04/17 08:45:23;;;;;;;7.27;6.57;;;23.10;51.60;;;;;;5007233;28;20476;-79
2023/04/17 08:47:51;;;;;;;6.87;6.30;;;23.20;51.60;;;;;;5024846;28;20503;-79
2023/04/17 08:50:20;;;;;;;7.73;7.03;;;23.40;51.60;;;;;;5010222;28;20956;-80
2023/04/17 08:52:51;;;;;;;7.37;6.77;;;23.50;51.50;;;;;;5008279;28;20483;-79
2023/04/17 08:55:21;;;;;;;6.53;6.03;;;23.70;51.70;;;;;;5010441;28;20459;-79
2023/04/17 08:57:58;;;;;;;7.00;6.40;;;23.90;51.80;;;;;;5012413;28;20448;-79
2023/04/17 09:00:27;;;;;;;6.63;6.13;;;24.20;51.80;;;;;;5014237;28;20447;-79
2023/04/17 09:02:56;;;;;;;6.73;6.20;;;24.40;51.60;;;;;;5014984;28;20552;-78
2023/04/17 09:05:25;;;;;;;7.30;6.80;;;24.60;51.50;;;;;;5013061;28;20485;-79
2023/04/17 09:08:07;;;;;;;7.30;6.70;;;24.90;51.40;;;;;;5006221;28;20448;-79
2023/04/17 09:10:36;;;;;;;7.20;6.50;;;25.10;51.10;;;;;;5007124;28;20463;-79
2023/04/17 09:13:04;;;;;;;6.80;6.30;;;25.40;50.80;;;;;;5002910;28;20474;-80
2023/04/17 09:15:32;;;;;;;7.00;6.50;;;25.70;50.80;;;;;;5004734;28;20411;-79
2023/04/17 09:18:00;;;;;;;9.43;6.10;;;25.90;50.60;;;;;;5011634;28;20411;-80
2023/04/17 09:20:28;;;;;;;6.80;6.20;;;25.90;50.20;;;;;;5012356;28;20991;-79
2023/04/17 09:23:01;;;;;;;6.97;6.03;;;26.00;50.10;;;;;;5016101;28;20399;-80
2023/04/17 09:25:30;;;;;;;7.07;6.47;;;26.00;50.00;;;;;;5008207;28;20475;-80
2023/04/17 09:28:10;;;;;;;6.97;6.37;;;26.10;50.30;;;;;;5012847;28;20431;-80
2023/04/17 09:30:38;;;;;;;6.27;5.77;;;26.20;50.30;;;;;;5003490;28;20444;-79
2023/04/17 09:33:07;;;;;;;6.80;6.20;;;26.50;50.50;;;;;;5007736;28;20412;-79
2023/04/17 09:35:37;;;;;;;6.13;5.73;;;26.80;50.30;;;;;;5008554;28;20498;-79
2023/04/17 09:38:08;;;;;;;6.00;5.50;;;27.10;50.00;;;;;;5004398;28;20445;-81
2023/04/17 09:40:37;;;;;;;6.27;5.77;;;27.40;49.90;;;;;;5005893;28;20438;-80
2023/04/17 09:43:12;;;;;;;6.47;5.87;;;27.60;49.70;;;;;;5021253;28;20422;-80
2023/04/17 09:45:43;;;;;;;5.77;5.27;;;27.70;49.20;;;;;;5010576;28;20454;-80
2023/04/17 09:48:12;;;;;;;5.80;5.30;;;27.80;49.00;;;;;;5019684;28;20455;-81
2023/04/17 09:50:40;;;;;;;5.97;5.47;;;28.00;49.10;;;;;;5017834;28;20555;-80
2023/04/17 09:53:10;;;;;;;5.67;5.27;;;28.10;49.00;;;;;;5010975;28;20892;-80
2023/04/17 09:55:43;;;;;;;5.30;4.90;;;28.20;48.80;;;;;;5023297;28;20415;-81
2023/04/17 09:58:11;;;;;;;6.40;5.90;;;28.50;49.00;;;;;;5026498;28;20443;-82
2023/04/17 10:00:39;;;;;;;6.33;5.90;;;28.70;48.80;;;;;;5022636;28;20462;-80
2023/04/17 10:03:07;;;;;;;5.13;4.83;;;29.00;48.50;;;;;;5015678;28;20451;-79
2023/04/17 10:05:36;;;;;;;5.27;4.97;;;29.30;48.50;;;;;;5012905;28;20447;-80
2023/04/17 10:08:04;;;;;;;6.23;5.70;;;29.50;48.20;;;;;;5010948;28;20430;-79
2023/04/17 10:10:35;;;;;;;5.30;5.00;;;29.60;48.00;;;;;;5008901;28;20483;-79
2023/04/17 10:13:04;;;;;;;5.83;5.30;;;29.80;47.80;;;;;;5009119;28;20448;-81
2023/04/17 10:15:32;;;;;;;5.93;5.47;;;30.00;47.30;;;;;;5015099;28;20453;-79
2023/04/17 10:18:18;;;;;;;5.30;4.90;;;30.10;47.50;;;;;;5017073;28;20422;-79
2023/04/17 10:20:47;;;;;;;5.63;5.20;;;30.30;47.30;;;;;;5015037;28;20480;-79
2023/04/17 10:23:39;;;;;;;5.50;5.07;;;30.50;47.00;;;;;;5014547;28;20424;-79
2023/04/17 10:26:38;;;;;;;5.60;5.10;;;30.80;46.90;;;;;;5002517;28;20451;-79
2023/04/17 10:29:06;;;;;;;5.23;4.93;;;31.20;46.50;;;;;;5010581;28;20421;-79
2023/04/17 10:32:24;;;;;;;6.13;4.80;;;31.40;45.90;;;;;;5014354;28;20444;-79
2023/04/17 10:34:53;;;;;;;4.90;4.60;;;31.40;45.80;;;;;;5008283;28;20475;-79
2023/04/17 10:37:22;;;;;;;5.20;4.80;;;31.70;45.70;;;;;;5015514;28;20456;-80
2023/04/17 10:39:51;;;;;;;5.50;5.10;;;31.80;45.50;;;;;;5015307;28;20492;-78
2023/04/17 10:42:21;;;;;;;4.87;4.13;;;32.00;45.40;;;;;;5014035;28;20412;-79
2023/04/17 10:44:50;;;;;;;5.17;4.83;;;32.30;45.20;;;;;;5013174;28;20463;-79
2023/04/17 10:47:20;;;;;;;4.77;4.47;;;32.50;45.00;;;;;;5019423;28;20948;-79
2023/04/17 10:49:51;;;;;;;4.73;4.30;;;32.70;44.70;;;;;;5008447;28;20467;-79
2023/04/17 10:52:37;;;;;;;4.33;4.13;;;33.00;44.40;;;;;;5012444;28;20440;-80
2023/04/17 10:55:06;;;;;;;5.10;4.60;;;33.30;44.00;;;;;;5014874;28;20612;-80
2023/04/17 10:57:56;;;;;;;4.40;4.17;;;33.60;43.80;;;;;;5018671;28;20888;-80
2023/04/17 11:00:32;;;;;;;4.70;4.30;;;33.90;43.20;;;;;;5014621;28;20472;-79
2023/04/17 11:03:00;;;;;;;4.50;4.10;;;34.20;42.90;;;;;;5004426;28;20451;-79
2023/04/17 11:05:30;;;;;;;4.53;4.13;;;34.30;42.50;;;;;;5008668;28;20480;-79
2023/04/17 11:07:57;;;;;;;3.83;3.63;;;34.60;42.50;;;;;;5008462;28;20440;-78
2023/04/17 11:10:25;;;;;;;4.27;4.07;;;34.70;42.10;;;;;;5009580;28;20479;-79
2023/04/17 11:12:55;;;;;;;4.53;4.27;;;34.90;42.00;;;;;;5011527;28;20476;-77
2023/04/17 11:15:27;;;;;;;4.33;4.13;;;35.40;41.80;;;;;;5012384;28;20448;-78
2023/04/17 11:17:57;;;;;;;4.50;4.20;;;36.40;40.70;;;;;;5008000;28;20459;-79
2023/04/17 11:20:26;;;;;;;4.17;4.00;;;37.50;39.00;;;;;;5011328;28;20476;-79
2023/04/17 11:22:56;;;;;;;3.80;3.70;;;38.40;37.90;;;;;;5011847;28;20450;-79
2023/04/17 11:25:25;;;;;;;3.43;3.33;;;39.60;36.40;;;;;;5011864;28;20443;-80
2023/04/17 11:27:59;;;;;;;3.83;3.30;;;40.60;35.00;;;;;;5011523;28;20452;-80
2023/04/17 11:30:27;;;;;;;3.10;3.00;;;41.60;33.70;;;;;;5010323;28;20472;-80
2023/04/17 11:32:57;;;;;;;2.83;2.83;;;42.40;32.80;;;;;;5004058;28;20463;-80
2023/04/17 11:35:29;;;;;;;2.70;2.60;;;43.10;31.50;;;;;;5008219;28;20460;-80
2023/04/17 11:38:11;;;;;;;2.63;2.53;;;43.90;30.60;;;;;;5005430;28;20455;-80
2023/04/17 11:40:44;;;;;;;2.43;2.43;;;44.70;29.60;;;;;;5004308;28;20475;-80
2023/04/17 11:43:13;;;;;;;2.47;2.37;;;45.30;28.90;;;;;;5023571;28;20450;-81
2023/04/17 11:45:43;;;;;;;2.50;2.40;;;45.90;28.50;;;;;;5007461;28;20463;-81
2023/04/17 11:48:11;;;;;;;2.20;2.10;;;46.40;28.00;;;;;;5013891;28;20807;-79
2023/04/17 11:50:40;;;;;;;1.95;1.95;;;46.80;27.60;;;;;;5008667;28;20219;-80
2023/04/17 11:53:08;;;;;;;2.20;2.20;;;47.20;27.20;;;;;;5015523;28;20205;-81
2023/04/17 11:55:36;;;;;;;1.90;1.90;;;47.50;26.80;;;;;;5025561;28;20198;-79
2023/04/17 11:58:06;;;;;;;2.10;1.70;;;47.70;26.60;;;;;;5035463;28;20186;-81
2023/04/17 12:00:36;;;;;;;2.10;2.10;;;48.00;26.30;;;;;;5036200;28;20206;-79
2023/04/17 12:03:32;;;;;;;2.13;2.10;;;48.20;26.20;;;;;;5031636;28;20202;-79
2023/04/17 12:06:00;;;;;;;2.00;2.00;;;48.40;26.00;;;;;;5033297;28;20179;-79
2023/04/17 12:08:28;;;;;;;1.73;1.73;;;48.70;25.80;;;;;;5025489;28;20205;-79
2023/04/17 12:10:57;;;;;;;2.63;2.08;;;48.80;25.70;;;;;;5029437;28;20190;-78
2023/04/17 12:13:25;;;;;;;1.67;1.67;;;49.00;25.40;;;;;;5033605;28;20178;-78
2023/04/17 12:15:54;;;;;;;2.13;1.98;;;49.10;25.30;;;;;;5023729;28;20201;-81
2023/04/17 12:18:21;;;;;;;1.77;1.77;;;49.40;25.30;;;;;;5015592;28;20201;-80
2023/04/17 12:20:50;;;;;;;1.60;1.60;;;49.70;24.80;;;;;;5015081;28;20254;-80
2023/04/17 12:23:17;;;;;;;1.40;1.30;;;49.90;24.60;;;;;;5006976;28;20207;-79
2023/04/17 12:25:45;;;;;;;1.73;1.65;;;50.00;24.40;;;;;;5007505;28;20207;-79
2023/04/17 12:28:14;;;;;;;1.67;1.67;;;50.20;24.30;;;;;;5013696;28;20203;-78
2023/04/17 12:30:42;;;;;;;1.50;1.50;;;50.40;24.20;;;;;;5010413;28;20290;-79
2023/04/17 12:33:11;;;;;;;1.30;1.30;;;50.50;24.10;;;;;;5016684;28;20674;-79
2023/04/17 12:35:39;;;;;;;1.60;1.60;;;50.60;23.80;;;;;;5008994;28;20195;-80
2023/04/17 12:38:07;;;;;;;1.40;1.40;;;50.70;23.90;;;;;;5017513;28;20218;-80
2023/04/17 12:40:37;;;;;;;1.45;1.45;;;50.70;23.80;;;;;;5016918;28;20226;-80
2023/04/17 12:43:07;;;;;;;1.30;1.30;;;50.80;23.80;;;;;;5015492;28;20290;-80
2023/04/17 12:45:35;;;;;;;1.80;1.80;;;50.90;23.70;;;;;;5013773;28;20213;-79
2023/04/17 12:48:04;;;;;;;1.70;1.70;;;51.00;23.50;;;;;;5017669;28;20258;-79
2023/04/17 12:50:39;;;;;;;1.75;1.75;;;50.90;23.50;;;;;;5013376;28;20268;-80